sensor_id;sensor_type;location;lat;lon;timestamp;temperature;humidity
947;DHT22;460;48.734;9.152;2023-11-21T00:00:33;8.00;99.90
947;DHT22;460;48.734;9.152;2023-11-21T00:03:00;8.00;99.90
947;DHT22;460;48.734;9.152;2023-11-21T00:05:27;7.90;99.90
947;DHT22;460;48.734;9.152;2023-11-21T00:07:55;7.90;99.90
947;DHT22;460;48.734;9.152;2023-11-21T00:10:22;7.90;99.90
947;DHT22;460;48.734;9.152;2023-11-21T00:12:49;7.90;99.90
947;DHT22;460;48.734;9.152;2023-11-21T00:15:16;7.90;99.90
947;DHT22;460;48.734;9.152;2023-11-21T00:17:42;7.90;99.90
947;DHT22;460;48.734;9.152;2023-11-21T00:20:10;8.00;99.90
947;DHT22;460;48.734;9.152;2023-11-21T00:22:38;7.90;99.90
947;DHT22;460;48.734;9.152;2023-11-21T00:25:08;7.90;99.90
947;DHT22;460;48.734;9.152;2023-11-21T00:27:35;8.00;99.90
947;DHT22;460;48.734;9.152;2023-11-21T00:30:02;8.00;99.90
947;DHT22;460;48.734;9.152;2023-11-21T00:32:30;8.00;99.90
947;DHT22;460;48.734;9.152;2023-11-21T00:34:57;7.90;99.90
947;DHT22;460;48.734;9.152;2023-11-21T00:37:24;7.80;99.90
947;DHT22;460;48.734;9.152;2023-11-21T00:39:51;7.90;99.90
947;DHT22;460;48.734;9.152;2023-11-21T00:42:19;7.90;99.90
947;DHT22;460;48.734;9.152;2023-11-21T00:44:47;7.90;99.90
947;DHT22;460;48.734;9.152;2023-11-21T00:47:13;8.10;99.90
947;DHT22;460;48.734;9.152;2023-11-21T00:49:40;8.00;99.90
947;DHT22;460;48.734;9.152;2023-11-21T00:52:07;7.90;99.90
947;DHT22;460;48.734;9.152;2023-11-21T00:54:34;7.90;99.90
947;DHT22;460;48.734;9.152;2023-11-21T00:57:01;7.90;99.90
947;DHT22;460;48.734;9.152;2023-11-21T00:59:30;7.80;99.90
947;DHT22;460;48.734;9.152;2023-11-21T01:01:57;7.90;99.90
947;DHT22;460;48.734;9.152;2023-11-21T01:04:25;7.80;99.90
947;DHT22;460;48.734;9.152;2023-11-21T01:06:52;7.90;99.90
947;DHT22;460;48.734;9.152;2023-11-21T01:09:19;7.80;99.90
947;DHT22;460;48.734;9.152;2023-11-21T01:11:46;7.80;99.90
947;DHT22;460;48.734;9.152;2023-11-21T01:14:13;7.90;99.90
947;DHT22;460;48.734;9.152;2023-11-21T01:16:41;7.90;99.90
947;DHT22;460;48.734;9.152;2023-11-21T01:19:08;7.90;99.90
947;DHT22;460;48.734;9.152;2023-11-21T01:21:34;7.90;99.90
947;DHT22;460;48.734;9.152;2023-11-21T01:24:01;7.90;99.90
947;DHT22;460;48.734;9.152;2023-11-21T01:26:28;7.90;99.90
947;DHT22;460;48.734;9.152;2023-11-21T01:28:55;7.90;99.90
947;DHT22;460;48.734;9.152;2023-11-21T01:31:22;8.00;99.90
947;DHT22;460;48.734;9.152;2023-11-21T01:33:50;8.00;99.90
947;DHT22;460;48.734;9.152;2023-11-21T01:36:17;8.00;99.90
947;DHT22;460;48.734;9.152;2023-11-21T01:38:43;8.00;99.90
947;DHT22;460;48.734;9.152;2023-11-21T01:41:11;7.90;99.90
947;DHT22;460;48.734;9.152;2023-11-21T01:43:38;8.00;99.90
947;DHT22;460;48.734;9.152;2023-11-21T01:46:05;7.90;99.90
947;DHT22;460;48.734;9.152;2023-11-21T01:48:33;7.90;99.90
947;DHT22;460;48.734;9.152;2023-11-21T01:51:02;8.00;99.90
947;DHT22;460;48.734;9.152;2023-11-21T01:53:30;7.90;99.90
947;DHT22;460;48.734;9.152;2023-11-21T01:55:57;7.90;99.90
947;DHT22;460;48.734;9.152;2023-11-21T01:58:25;7.80;99.90
947;DHT22;460;48.734;9.152;2023-11-21T02:00:52;7.90;99.90
947;DHT22;460;48.734;9.152;2023-11-21T02:03:20;7.90;99.90
947;DHT22;460;48.734;9.152;2023-11-21T02:05:47;7.90;99.90
947;DHT22;460;48.734;9.152;2023-11-21T02:08:15;8.00;99.90
947;DHT22;460;48.734;9.152;2023-11-21T02:10:42;8.00;99.90
947;DHT22;460;48.734;9.152;2023-11-21T02:13:09;8.00;99.90
947;DHT22;460;48.734;9.152;2023-11-21T02:15:37;8.00;99.90
947;DHT22;460;48.734;9.152;2023-11-21T02:18:05;7.90;99.90
947;DHT22;460;48.734;9.152;2023-11-21T02:20:33;7.80;99.90
947;DHT22;460;48.734;9.152;2023-11-21T02:23:02;7.90;99.90
947;DHT22;460;48.734;9.152;2023-11-21T02:25:32;7.90;99.90
947;DHT22;460;48.734;9.152;2023-11-21T02:28:02;7.90;99.90
947;DHT22;460;48.734;9.152;2023-11-21T02:30:30;7.90;99.90
947;DHT22;460;48.734;9.152;2023-11-21T02:32:58;7.80;99.90
947;DHT22;460;48.734;9.152;2023-11-21T02:35:27;7.80;99.90
947;DHT22;460;48.734;9.152;2023-11-21T02:37:55;7.80;99.90
947;DHT22;460;48.734;9.152;2023-11-21T02:40:24;7.70;99.90
947;DHT22;460;48.734;9.152;2023-11-21T02:42:53;7.60;99.90
947;DHT22;460;48.734;9.152;2023-11-21T02:45:20;7.60;99.90
947;DHT22;460;48.734;9.152;2023-11-21T02:47:48;7.70;99.90
947;DHT22;460;48.734;9.152;2023-11-21T02:50:16;7.60;99.90
947;DHT22;460;48.734;9.152;2023-11-21T02:52:44;7.60;99.90
947;DHT22;460;48.734;9.152;2023-11-21T02:55:11;7.60;99.90
947;DHT22;460;48.734;9.152;2023-11-21T02:57:39;7.60;99.90
947;DHT22;460;48.734;9.152;2023-11-21T03:00:06;7.60;99.90
947;DHT22;460;48.734;9.152;2023-11-21T03:02:33;7.60;99.90
947;DHT22;460;48.734;9.152;2023-11-21T03:05:02;7.60;99.90
947;DHT22;460;48.734;9.152;2023-11-21T03:07:30;7.70;99.90
947;DHT22;460;48.734;9.152;2023-11-21T03:09:57;7.60;99.90
947;DHT22;460;48.734;9.152;2023-11-21T03:12:24;7.60;99.90
947;DHT22;460;48.734;9.152;2023-11-21T03:14:52;7.80;99.90
947;DHT22;460;48.734;9.152;2023-11-21T03:17:21;7.70;99.90
947;DHT22;460;48.734;9.152;2023-11-21T03:19:48;7.60;99.90
947;DHT22;460;48.734;9.152;2023-11-21T03:22:16;7.60;99.90
947;DHT22;460;48.734;9.152;2023-11-21T03:24:43;7.60;99.90
947;DHT22;460;48.734;9.152;2023-11-21T03:27:10;7.60;99.90
947;DHT22;460;48.734;9.152;2023-11-21T03:29:38;7.60;99.90
947;DHT22;460;48.734;9.152;2023-11-21T03:32:07;7.60;99.90
947;DHT22;460;48.734;9.152;2023-11-21T03:34:35;7.70;99.90
947;DHT22;460;48.734;9.152;2023-11-21T03:37:03;7.80;99.90
947;DHT22;460;48.734;9.152;2023-11-21T03:39:30;7.80;99.90
947;DHT22;460;48.734;9.152;2023-11-21T03:41:58;7.70;99.90
947;DHT22;460;48.734;9.152;2023-11-21T03:44:25;7.70;99.90
947;DHT22;460;48.734;9.152;2023-11-21T03:46:53;7.70;99.90
947;DHT22;460;48.734;9.152;2023-11-21T03:49:22;7.70;99.90
947;DHT22;460;48.734;9.152;2023-11-21T03:51:49;7.60;99.90
947;DHT22;460;48.734;9.152;2023-11-21T03:54:16;7.50;99.90
947;DHT22;460;48.734;9.152;2023-11-21T03:56:44;7.50;99.90
947;DHT22;460;48.734;9.152;2023-11-21T03:59:10;7.60;99.90
947;DHT22;460;48.734;9.152;2023-11-21T04:01:37;7.50;99.90
947;DHT22;460;48.734;9.152;2023-11-21T04:04:04;7.60;99.90
947;DHT22;460;48.734;9.152;2023-11-21T04:06:32;7.60;99.90
947;DHT22;460;48.734;9.152;2023-11-21T04:08:59;7.70;99.90
947;DHT22;460;48.734;9.152;2023-11-21T04:11:26;7.70;99.90
947;DHT22;460;48.734;9.152;2023-11-21T04:13:55;7.70;99.90
947;DHT22;460;48.734;9.152;2023-11-21T04:16:22;7.70;99.90
947;DHT22;460;48.734;9.152;2023-11-21T04:18:48;7.60;99.90
947;DHT22;460;48.734;9.152;2023-11-21T04:21:15;7.70;99.90
947;DHT22;460;48.734;9.152;2023-11-21T04:23:43;7.70;99.90
947;DHT22;460;48.734;9.152;2023-11-21T04:26:10;7.70;99.90
947;DHT22;460;48.734;9.152;2023-11-21T04:28:37;7.70;99.90
947;DHT22;460;48.734;9.152;2023-11-21T04:31:04;7.60;99.90
947;DHT22;460;48.734;9.152;2023-11-21T04:33:32;7.70;99.90
947;DHT22;460;48.734;9.152;2023-11-21T04:35:59;7.60;99.90
947;DHT22;460;48.734;9.152;2023-11-21T04:38:26;7.60;99.90
947;DHT22;460;48.734;9.152;2023-11-21T04:40:54;7.60;99.90
947;DHT22;460;48.734;9.152;2023-11-21T04:43:21;7.60;99.90
947;DHT22;460;48.734;9.152;2023-11-21T04:45:47;7.70;99.90
947;DHT22;460;48.734;9.152;2023-11-21T04:48:14;7.70;99.90
947;DHT22;460;48.734;9.152;2023-11-21T04:50:41;7.70;99.90
947;DHT22;460;48.734;9.152;2023-11-21T04:53:08;7.70;99.90
947;DHT22;460;48.734;9.152;2023-11-21T04:55:34;7.60;99.90
947;DHT22;460;48.734;9.152;2023-11-21T04:58:03;7.60;99.90
947;DHT22;460;48.734;9.152;2023-11-21T05:00:30;7.60;99.90
947;DHT22;460;48.734;9.152;2023-11-21T05:02:56;7.60;99.90
947;DHT22;460;48.734;9.152;2023-11-21T05:05:23;7.70;99.90
947;DHT22;460;48.734;9.152;2023-11-21T05:07:50;7.60;99.90
947;DHT22;460;48.734;9.152;2023-11-21T05:10:19;7.60;99.90
947;DHT22;460;48.734;9.152;2023-11-21T05:12:45;7.50;99.90
947;DHT22;460;48.734;9.152;2023-11-21T05:15:14;7.50;99.90
947;DHT22;460;48.734;9.152;2023-11-21T05:17:42;7.40;99.90
947;DHT22;460;48.734;9.152;2023-11-21T05:20:11;7.50;99.90
947;DHT22;460;48.734;9.152;2023-11-21T05:22:39;7.40;99.90
947;DHT22;460;48.734;9.152;2023-11-21T05:25:08;7.40;99.90
947;DHT22;460;48.734;9.152;2023-11-21T05:27:35;7.30;99.90
947;DHT22;460;48.734;9.152;2023-11-21T05:30:02;7.40;99.90
947;DHT22;460;48.734;9.152;2023-11-21T05:32:32;7.40;99.90
947;DHT22;460;48.734;9.152;2023-11-21T05:34:59;7.40;99.90
947;DHT22;460;48.734;9.152;2023-11-21T05:37:26;7.40;99.90
947;DHT22;460;48.734;9.152;2023-11-21T05:39:53;7.40;99.90
947;DHT22;460;48.734;9.152;2023-11-21T05:42:21;7.40;99.90
947;DHT22;460;48.734;9.152;2023-11-21T05:44:48;7.40;99.90
947;DHT22;460;48.734;9.152;2023-11-21T05:47:15;7.40;99.90
947;DHT22;460;48.734;9.152;2023-11-21T05:49:44;7.40;99.90
947;DHT22;460;48.734;9.152;2023-11-21T05:52:15;7.40;99.90
947;DHT22;460;48.734;9.152;2023-11-21T05:54:42;7.40;99.90
947;DHT22;460;48.734;9.152;2023-11-21T05:57:09;7.40;99.90
947;DHT22;460;48.734;9.152;2023-11-21T05:59:36;7.40;99.90
947;DHT22;460;48.734;9.152;2023-11-21T06:02:03;7.40;99.90
947;DHT22;460;48.734;9.152;2023-11-21T06:04:30;7.50;99.90
947;DHT22;460;48.734;9.152;2023-11-21T06:06:58;7.50;99.90
947;DHT22;460;48.734;9.152;2023-11-21T06:09:26;7.30;99.90
947;DHT22;460;48.734;9.152;2023-11-21T06:11:53;7.40;99.90
947;DHT22;460;48.734;9.152;2023-11-21T06:14:20;7.40;99.90
947;DHT22;460;48.734;9.152;2023-11-21T06:16:47;7.40;99.90
947;DHT22;460;48.734;9.152;2023-11-21T06:19:16;7.30;99.90
947;DHT22;460;48.734;9.152;2023-11-21T06:21:45;7.30;99.90
947;DHT22;460;48.734;9.152;2023-11-21T06:24:13;7.30;99.90
947;DHT22;460;48.734;9.152;2023-11-21T06:26:41;7.20;99.90
947;DHT22;460;48.734;9.152;2023-11-21T06:29:09;7.20;99.90
947;DHT22;460;48.734;9.152;2023-11-21T06:31:36;7.30;99.90
947;DHT22;460;48.734;9.152;2023-11-21T06:34:03;7.20;99.90
947;DHT22;460;48.734;9.152;2023-11-21T06:36:30;7.20;99.90
947;DHT22;460;48.734;9.152;2023-11-21T06:38:56;7.20;99.90
947;DHT22;460;48.734;9.152;2023-11-21T06:41:24;7.10;99.90
947;DHT22;460;48.734;9.152;2023-11-21T06:43:51;7.20;99.90
947;DHT22;460;48.734;9.152;2023-11-21T06:46:18;7.20;99.90
947;DHT22;460;48.734;9.152;2023-11-21T06:48:45;7.20;99.90
947;DHT22;460;48.734;9.152;2023-11-21T06:51:12;7.20;99.90
947;DHT22;460;48.734;9.152;2023-11-21T06:53:40;7.20;99.90
947;DHT22;460;48.734;9.152;2023-11-21T06:56:15;7.30;99.90
947;DHT22;460;48.734;9.152;2023-11-21T06:58:44;7.30;99.90
947;DHT22;460;48.734;9.152;2023-11-21T07:01:12;7.30;99.90
947;DHT22;460;48.734;9.152;2023-11-21T07:03:39;7.30;99.90
947;DHT22;460;48.734;9.152;2023-11-21T07:06:07;7.30;99.90
947;DHT22;460;48.734;9.152;2023-11-21T07:08:34;7.40;99.90
947;DHT22;460;48.734;9.152;2023-11-21T07:11:00;7.50;99.90
947;DHT22;460;48.734;9.152;2023-11-21T07:13:28;7.50;99.90
947;DHT22;460;48.734;9.152;2023-11-21T07:15:57;7.50;99.90
947;DHT22;460;48.734;9.152;2023-11-21T07:18:24;7.50;99.90
947;DHT22;460;48.734;9.152;2023-11-21T07:20:51;7.70;99.90
947;DHT22;460;48.734;9.152;2023-11-21T07:23:18;7.70;99.90
947;DHT22;460;48.734;9.152;2023-11-21T07:25:45;7.60;99.90
947;DHT22;460;48.734;9.152;2023-11-21T07:28:12;7.70;99.90
947;DHT22;460;48.734;9.152;2023-11-21T07:30:39;7.60;99.90
947;DHT22;460;48.734;9.152;2023-11-21T07:33:07;7.60;99.90
947;DHT22;460;48.734;9.152;2023-11-21T07:35:34;7.60;99.90
947;DHT22;460;48.734;9.152;2023-11-21T07:38:01;7.60;99.90
947;DHT22;460;48.734;9.152;2023-11-21T07:40:27;7.40;99.90
947;DHT22;460;48.734;9.152;2023-11-21T07:42:54;7.50;99.90
947;DHT22;460;48.734;9.152;2023-11-21T07:45:22;7.50;99.90
947;DHT22;460;48.734;9.152;2023-11-21T07:47:49;7.70;99.90
947;DHT22;460;48.734;9.152;2023-11-21T07:50:18;7.70;99.90
947;DHT22;460;48.734;9.152;2023-11-21T07:52:45;7.70;99.90
947;DHT22;460;48.734;9.152;2023-11-21T07:55:12;7.70;99.90
947;DHT22;460;48.734;9.152;2023-11-21T07:57:39;7.80;99.90
947;DHT22;460;48.734;9.152;2023-11-21T08:00:07;7.80;99.90
947;DHT22;460;48.734;9.152;2023-11-21T08:02:37;7.90;99.90
947;DHT22;460;48.734;9.152;2023-11-21T08:05:05;7.90;99.90
947;DHT22;460;48.734;9.152;2023-11-21T08:07:34;8.00;99.90
947;DHT22;460;48.734;9.152;2023-11-21T08:10:01;7.90;99.90
947;DHT22;460;48.734;9.152;2023-11-21T08:12:30;8.00;99.90
947;DHT22;460;48.734;9.152;2023-11-21T08:14:57;8.00;99.90
947;DHT22;460;48.734;9.152;2023-11-21T08:17:23;8.00;99.90
947;DHT22;460;48.734;9.152;2023-11-21T08:19:50;8.00;99.90
947;DHT22;460;48.734;9.152;2023-11-21T08:22:18;8.10;99.90
947;DHT22;460;48.734;9.152;2023-11-21T08:24:46;8.00;99.90
947;DHT22;460;48.734;9.152;2023-11-21T08:27:13;8.00;99.90
947;DHT22;460;48.734;9.152;2023-11-21T08:29:41;8.10;99.90
947;DHT22;460;48.734;9.152;2023-11-21T08:32:08;8.10;99.90
947;DHT22;460;48.734;9.152;2023-11-21T08:34:35;8.10;99.90
947;DHT22;460;48.734;9.152;2023-11-21T08:37:02;8.10;99.90
947;DHT22;460;48.734;9.152;2023-11-21T08:39:29;8.10;99.90
947;DHT22;460;48.734;9.152;2023-11-21T08:41:57;8.10;99.90
947;DHT22;460;48.734;9.152;2023-11-21T08:44:24;8.10;99.90
947;DHT22;460;48.734;9.152;2023-11-21T08:46:51;8.10;99.90
947;DHT22;460;48.734;9.152;2023-11-21T08:49:17;8.10;99.90
947;DHT22;460;48.734;9.152;2023-11-21T08:51:44;8.30;99.90
947;DHT22;460;48.734;9.152;2023-11-21T08:54:11;8.30;99.90
947;DHT22;460;48.734;9.152;2023-11-21T08:56:38;8.30;99.90
947;DHT22;460;48.734;9.152;2023-11-21T08:59:06;8.40;99.90
947;DHT22;460;48.734;9.152;2023-11-21T09:01:33;8.50;99.90
947;DHT22;460;48.734;9.152;2023-11-21T09:04:00;8.70;99.90
947;DHT22;460;48.734;9.152;2023-11-21T09:06:28;8.70;99.90
947;DHT22;460;48.734;9.152;2023-11-21T09:08:54;8.90;99.90
947;DHT22;460;48.734;9.152;2023-11-21T09:11:21;9.00;99.90
947;DHT22;460;48.734;9.152;2023-11-21T09:13:49;9.00;99.90
947;DHT22;460;48.734;9.152;2023-11-21T09:16:18;9.00;99.90
947;DHT22;460;48.734;9.152;2023-11-21T09:18:45;9.10;99.90
947;DHT22;460;48.734;9.152;2023-11-21T09:21:12;9.20;99.90
947;DHT22;460;48.734;9.152;2023-11-21T09:23:38;9.30;99.90
947;DHT22;460;48.734;9.152;2023-11-21T09:26:05;9.30;99.90
947;DHT22;460;48.734;9.152;2023-11-21T09:28:32;9.50;99.90
947;DHT22;460;48.734;9.152;2023-11-21T09:30:59;9.40;99.90
947;DHT22;460;48.734;9.152;2023-11-21T09:33:30;9.20;99.90
947;DHT22;460;48.734;9.152;2023-11-21T09:35:57;9.30;99.90
947;DHT22;460;48.734;9.152;2023-11-21T09:38:23;9.40;99.90
947;DHT22;460;48.734;9.152;2023-11-21T09:40:50;9.40;99.90
947;DHT22;460;48.734;9.152;2023-11-21T09:43:20;9.30;99.90
947;DHT22;460;48.734;9.152;2023-11-21T09:45:51;9.20;99.90
947;DHT22;460;48.734;9.152;2023-11-21T09:48:20;9.10;99.90
947;DHT22;460;48.734;9.152;2023-11-21T09:50:50;9.00;99.90
947;DHT22;460;48.734;9.152;2023-11-21T09:53:18;9.10;99.90
947;DHT22;460;48.734;9.152;2023-11-21T09:55:47;9.00;99.90
947;DHT22;460;48.734;9.152;2023-11-21T09:58:16;9.10;99.90
947;DHT22;460;48.734;9.152;2023-11-21T10:00:45;9.20;99.90
947;DHT22;460;48.734;9.152;2023-11-21T10:03:12;9.10;99.90
947;DHT22;460;48.734;9.152;2023-11-21T10:05:43;9.10;99.90
947;DHT22;460;48.734;9.152;2023-11-21T10:08:13;9.10;99.90
947;DHT22;460;48.734;9.152;2023-11-21T10:10:44;9.00;99.90
947;DHT22;460;48.734;9.152;2023-11-21T10:13:12;9.00;99.90
947;DHT22;460;48.734;9.152;2023-11-21T10:15:42;9.00;99.90
947;DHT22;460;48.734;9.152;2023-11-21T10:18:14;9.00;99.90
947;DHT22;460;48.734;9.152;2023-11-21T10:20:42;9.10;99.90
947;DHT22;460;48.734;9.152;2023-11-21T10:23:13;9.10;99.90
947;DHT22;460;48.734;9.152;2023-11-21T10:25:41;9.00;99.90
947;DHT22;460;48.734;9.152;2023-11-21T10:28:10;9.00;99.90
947;DHT22;460;48.734;9.152;2023-11-21T10:30:37;8.90;99.90
947;DHT22;460;48.734;9.152;2023-11-21T10:33:06;8.80;99.90
947;DHT22;460;48.734;9.152;2023-11-21T10:35:42;8.70;99.90
947;DHT22;460;48.734;9.152;2023-11-21T10:38:13;8.60;99.90
947;DHT22;460;48.734;9.152;2023-11-21T10:40:40;8.60;99.90
947;DHT22;460;48.734;9.152;2023-11-21T10:43:08;8.50;99.90
947;DHT22;460;48.734;9.152;2023-11-21T10:45:36;8.60;99.90
947;DHT22;460;48.734;9.152;2023-11-21T10:48:05;8.60;99.90
947;DHT22;460;48.734;9.152;2023-11-21T10:50:34;8.70;99.90
947;DHT22;460;48.734;9.152;2023-11-21T10:53:02;8.60;99.90
947;DHT22;460;48.734;9.152;2023-11-21T10:55:32;8.50;99.90
947;DHT22;460;48.734;9.152;2023-11-21T10:58:00;8.50;99.90
947;DHT22;460;48.734;9.152;2023-11-21T11:00:31;8.60;99.90
947;DHT22;460;48.734;9.152;2023-11-21T11:02:58;8.70;99.90
947;DHT22;460;48.734;9.152;2023-11-21T11:05:27;8.70;99.90
947;DHT22;460;48.734;9.152;2023-11-21T11:07:58;8.70;99.90
947;DHT22;460;48.734;9.152;2023-11-21T11:10:27;9.00;99.90
947;DHT22;460;48.734;9.152;2023-11-21T11:12:57;8.90;99.90
947;DHT22;460;48.734;9.152;2023-11-21T11:15:24;8.80;99.90
947;DHT22;460;48.734;9.152;2023-11-21T11:17:52;8.80;99.90
947;DHT22;460;48.734;9.152;2023-11-21T11:20:23;8.80;99.90
947;DHT22;460;48.734;9.152;2023-11-21T11:22:59;8.80;99.90
947;DHT22;460;48.734;9.152;2023-11-21T11:25:52;8.80;99.90
947;DHT22;460;48.734;9.152;2023-11-21T11:28:29;8.80;99.90
947;DHT22;460;48.734;9.152;2023-11-21T11:31:05;8.70;99.90
947;DHT22;460;48.734;9.152;2023-11-21T11:33:41;8.70;99.90
947;DHT22;460;48.734;9.152;2023-11-21T11:36:15;8.70;99.90
947;DHT22;460;48.734;9.152;2023-11-21T11:38:46;8.80;99.90
947;DHT22;460;48.734;9.152;2023-11-21T11:41:24;8.80;99.90
947;DHT22;460;48.734;9.152;2023-11-21T11:43:53;8.90;99.90
947;DHT22;460;48.734;9.152;2023-11-21T11:46:20;8.90;99.90
947;DHT22;460;48.734;9.152;2023-11-21T11:48:48;8.80;99.90
947;DHT22;460;48.734;9.152;2023-11-21T11:51:15;8.70;99.90
947;DHT22;460;48.734;9.152;2023-11-21T11:53:46;8.90;99.90
947;DHT22;460;48.734;9.152;2023-11-21T11:56:23;8.90;99.90
947;DHT22;460;48.734;9.152;2023-11-21T11:58:54;8.80;99.90
947;DHT22;460;48.734;9.152;2023-11-21T12:01:22;8.90;99.90
947;DHT22;460;48.734;9.152;2023-11-21T12:04:23;9.10;99.90
947;DHT22;460;48.734;9.152;2023-11-21T12:06:57;9.20;99.90
947;DHT22;460;48.734;9.152;2023-11-21T12:09:26;9.20;99.90
947;DHT22;460;48.734;9.152;2023-11-21T12:11:54;9.20;99.90
947;DHT22;460;48.734;9.152;2023-11-21T12:14:23;9.30;99.90
947;DHT22;460;48.734;9.152;2023-11-21T12:16:51;9.30;99.90
947;DHT22;460;48.734;9.152;2023-11-21T12:19:18;9.30;99.90
947;DHT22;460;48.734;9.152;2023-11-21T12:21:46;9.50;99.90
947;DHT22;460;48.734;9.152;2023-11-21T12:24:14;9.60;99.90
947;DHT22;460;48.734;9.152;2023-11-21T12:26:42;9.70;99.90
947;DHT22;460;48.734;9.152;2023-11-21T12:29:09;9.60;99.90
947;DHT22;460;48.734;9.152;2023-11-21T12:31:37;9.50;99.90
947;DHT22;460;48.734;9.152;2023-11-21T12:34:05;9.40;99.90
947;DHT22;460;48.734;9.152;2023-11-21T12:36:32;9.60;99.90
947;DHT22;460;48.734;9.152;2023-11-21T12:39:00;9.60;99.90
947;DHT22;460;48.734;9.152;2023-11-21T12:41:28;9.60;99.90
947;DHT22;460;48.734;9.152;2023-11-21T12:43:56;9.70;99.90
947;DHT22;460;48.734;9.152;2023-11-21T12:46:23;9.70;99.90
947;DHT22;460;48.734;9.152;2023-11-21T12:48:52;9.60;99.90
947;DHT22;460;48.734;9.152;2023-11-21T12:51:21;9.70;99.90
947;DHT22;460;48.734;9.152;2023-11-21T12:53:48;9.50;99.90
947;DHT22;460;48.734;9.152;2023-11-21T12:56:15;9.60;99.90
947;DHT22;460;48.734;9.152;2023-11-21T12:58:45;9.50;99.90
947;DHT22;460;48.734;9.152;2023-11-21T13:01:13;9.60;99.90
947;DHT22;460;48.734;9.152;2023-11-21T13:03:46;9.40;99.90
947;DHT22;460;48.734;9.152;2023-11-21T13:06:16;9.40;99.90
947;DHT22;460;48.734;9.152;2023-11-21T13:08:44;9.10;99.90
947;DHT22;460;48.734;9.152;2023-11-21T13:11:11;8.90;99.90
947;DHT22;460;48.734;9.152;2023-11-21T13:13:41;8.80;99.90
947;DHT22;460;48.734;9.152;2023-11-21T13:16:09;8.70;99.90
947;DHT22;460;48.734;9.152;2023-11-21T13:18:36;8.70;99.90
947;DHT22;460;48.734;9.152;2023-11-21T13:21:06;8.80;99.90
947;DHT22;460;48.734;9.152;2023-11-21T13:23:38;8.70;99.90
947;DHT22;460;48.734;9.152;2023-11-21T13:26:06;8.90;99.90
947;DHT22;460;48.734;9.152;2023-11-21T13:28:34;9.10;99.90
947;DHT22;460;48.734;9.152;2023-11-21T13:31:03;9.20;99.90
947;DHT22;460;48.734;9.152;2023-11-21T13:33:35;9.10;99.90
947;DHT22;460;48.734;9.152;2023-11-21T13:36:04;9.00;99.90
947;DHT22;460;48.734;9.152;2023-11-21T13:38:33;9.00;99.90
947;DHT22;460;48.734;9.152;2023-11-21T13:41:02;8.90;99.90
947;DHT22;460;48.734;9.152;2023-11-21T13:43:33;8.90;99.90
947;DHT22;460;48.734;9.152;2023-11-21T13:46:00;9.00;99.90
947;DHT22;460;48.734;9.152;2023-11-21T13:48:34;9.00;99.90
947;DHT22;460;48.734;9.152;2023-11-21T13:51:07;8.90;99.90
947;DHT22;460;48.734;9.152;2023-11-21T13:53:41;8.80;99.90
947;DHT22;460;48.734;9.152;2023-11-21T13:56:10;8.80;99.90
947;DHT22;460;48.734;9.152;2023-11-21T13:58:38;8.90;99.90
947;DHT22;460;48.734;9.152;2023-11-21T14:01:12;8.90;99.90
947;DHT22;460;48.734;9.152;2023-11-21T14:03:58;8.80;99.90
947;DHT22;460;48.734;9.152;2023-11-21T14:06:34;8.80;99.90
947;DHT22;460;48.734;9.152;2023-11-21T14:09:08;8.70;99.90
947;DHT22;460;48.734;9.152;2023-11-21T14:11:36;8.60;99.90
947;DHT22;460;48.734;9.152;2023-11-21T14:14:03;8.50;99.90
947;DHT22;460;48.734;9.152;2023-11-21T14:16:31;8.50;99.90
947;DHT22;460;48.734;9.152;2023-11-21T14:18:57;8.40;99.90
947;DHT22;460;48.734;9.152;2023-11-21T14:21:31;8.50;99.90
947;DHT22;460;48.734;9.152;2023-11-21T14:23:57;8.50;99.90
947;DHT22;460;48.734;9.152;2023-11-21T14:26:24;8.40;99.90
947;DHT22;460;48.734;9.152;2023-11-21T14:28:52;8.40;99.90
947;DHT22;460;48.734;9.152;2023-11-21T14:31:19;8.50;99.90
947;DHT22;460;48.734;9.152;2023-11-21T14:33:46;8.50;99.90
947;DHT22;460;48.734;9.152;2023-11-21T14:36:13;8.50;99.90
947;DHT22;460;48.734;9.152;2023-11-21T14:38:42;8.50;99.90
947;DHT22;460;48.734;9.152;2023-11-21T14:41:09;8.50;99.90
947;DHT22;460;48.734;9.152;2023-11-21T14:43:36;8.60;99.90
947;DHT22;460;48.734;9.152;2023-11-21T14:46:06;8.50;99.90
947;DHT22;460;48.734;9.152;2023-11-21T14:48:35;8.60;99.90
947;DHT22;460;48.734;9.152;2023-11-21T14:51:08;8.40;99.90
947;DHT22;460;48.734;9.152;2023-11-21T14:53:56;8.30;99.90
947;DHT22;460;48.734;9.152;2023-11-21T14:56:26;8.40;99.90
947;DHT22;460;48.734;9.152;2023-11-21T14:58:57;8.40;99.90
947;DHT22;460;48.734;9.152;2023-11-21T15:01:26;8.30;99.90
947;DHT22;460;48.734;9.152;2023-11-21T15:04:08;8.40;99.90
947;DHT22;460;48.734;9.152;2023-11-21T15:06:40;8.50;99.90
947;DHT22;460;48.734;9.152;2023-11-21T15:09:08;8.40;99.90
947;DHT22;460;48.734;9.152;2023-11-21T15:12:04;8.40;99.90
947;DHT22;460;48.734;9.152;2023-11-21T15:14:40;8.40;99.90
947;DHT22;460;48.734;9.152;2023-11-21T15:17:08;8.40;99.90
947;DHT22;460;48.734;9.152;2023-11-21T15:19:35;8.20;99.90
947;DHT22;460;48.734;9.152;2023-11-21T15:22:02;8.30;99.90
947;DHT22;460;48.734;9.152;2023-11-21T15:24:29;8.40;99.90
947;DHT22;460;48.734;9.152;2023-11-21T15:26:56;8.40;99.90
947;DHT22;460;48.734;9.152;2023-11-21T15:29:24;8.30;99.90
947;DHT22;460;48.734;9.152;2023-11-21T15:31:51;8.40;99.90
947;DHT22;460;48.734;9.152;2023-11-21T15:34:22;8.40;99.90
947;DHT22;460;48.734;9.152;2023-11-21T15:36:49;8.30;99.90
947;DHT22;460;48.734;9.152;2023-11-21T15:39:18;8.20;99.90
947;DHT22;460;48.734;9.152;2023-11-21T15:41:47;8.30;99.90
947;DHT22;460;48.734;9.152;2023-11-21T15:44:13;8.20;99.90
947;DHT22;460;48.734;9.152;2023-11-21T15:46:42;8.20;99.90
947;DHT22;460;48.734;9.152;2023-11-21T15:49:10;8.30;99.90
947;DHT22;460;48.734;9.152;2023-11-21T15:51:39;8.20;99.90
947;DHT22;460;48.734;9.152;2023-11-21T15:54:06;8.20;99.90
947;DHT22;460;48.734;9.152;2023-11-21T15:56:34;8.20;99.90
947;DHT22;460;48.734;9.152;2023-11-21T15:59:01;8.20;99.90
947;DHT22;460;48.734;9.152;2023-11-21T16:01:29;8.20;99.90
947;DHT22;460;48.734;9.152;2023-11-21T16:03:58;8.20;99.90
947;DHT22;460;48.734;9.152;2023-11-21T16:06:26;8.20;99.90
947;DHT22;460;48.734;9.152;2023-11-21T16:08:54;8.20;99.90
947;DHT22;460;48.734;9.152;2023-11-21T16:11:21;8.20;99.90
947;DHT22;460;48.734;9.152;2023-11-21T16:13:48;8.20;99.90
947;DHT22;460;48.734;9.152;2023-11-21T16:16:20;8.10;99.90
947;DHT22;460;48.734;9.152;2023-11-21T16:18:47;8.20;99.90
947;DHT22;460;48.734;9.152;2023-11-21T16:21:15;8.10;99.90
947;DHT22;460;48.734;9.152;2023-11-21T16:23:42;8.10;99.90
947;DHT22;460;48.734;9.152;2023-11-21T16:26:09;8.10;99.90
947;DHT22;460;48.734;9.152;2023-11-21T16:28:37;8.00;99.90
947;DHT22;460;48.734;9.152;2023-11-21T16:31:05;8.00;99.90
947;DHT22;460;48.734;9.152;2023-11-21T16:33:32;8.00;99.90
947;DHT22;460;48.734;9.152;2023-11-21T16:35:58;7.90;99.90
947;DHT22;460;48.734;9.152;2023-11-21T16:38:27;7.90;99.90
947;DHT22;460;48.734;9.152;2023-11-21T16:40:53;7.90;99.90
947;DHT22;460;48.734;9.152;2023-11-21T16:43:20;7.80;99.90
947;DHT22;460;48.734;9.152;2023-11-21T16:45:48;7.90;99.90
947;DHT22;460;48.734;9.152;2023-11-21T16:48:18;8.00;99.90
947;DHT22;460;48.734;9.152;2023-11-21T16:50:44;8.10;99.90
947;DHT22;460;48.734;9.152;2023-11-21T16:53:12;8.00;99.90
947;DHT22;460;48.734;9.152;2023-11-21T16:55:40;8.00;99.90
947;DHT22;460;48.734;9.152;2023-11-21T16:58:07;8.10;99.90